createdAt,value
2023-03-29T00:00:24.923Z,14.30
2023-03-29T00:02:52.289Z,14.20
2023-03-29T00:05:25.432Z,14.20
2023-03-29T00:07:54.265Z,14.10
2023-03-29T00:10:24.178Z,14.10
2023-03-29T00:12:52.710Z,14.10
2023-03-29T00:15:20.564Z,14.10
2023-03-29T00:17:47.541Z,14.10
2023-03-29T00:20:14.522Z,14.10
2023-03-29T00:22:42.475Z,14.10
2023-03-29T00:25:11.040Z,14.10
2023-03-29T00:27:38.217Z,14.00
2023-03-29T00:30:10.360Z,14.00
2023-03-29T00:32:38.327Z,14.00
2023-03-29T00:35:06.365Z,13.90
2023-03-29T00:37:33.686Z,13.80
2023-03-29T00:40:01.674Z,13.80
2023-03-29T00:42:28.641Z,13.70
2023-03-29T00:44:56.954Z,13.70
2023-03-29T00:47:47.816Z,13.60
2023-03-29T00:50:22.699Z,13.50
2023-03-29T00:52:56.694Z,13.40
2023-03-29T00:55:24.710Z,13.40
2023-03-29T00:57:53.712Z,13.40
2023-03-29T01:00:27.405Z,13.40
2023-03-29T01:02:59.901Z,13.30
2023-03-29T01:05:32.097Z,13.30
2023-03-29T01:08:06.723Z,13.30
2023-03-29T01:10:37.421Z,13.30
2023-03-29T01:13:09.634Z,13.20
2023-03-29T01:15:39.087Z,13.20
2023-03-29T01:18:06.625Z,13.20
2023-03-29T01:20:46.775Z,13.20
2023-03-29T01:23:28.724Z,13.10
2023-03-29T01:26:10.655Z,13.10
2023-03-29T01:28:46.957Z,13.00
2023-03-29T01:31:25.713Z,13.10
2023-03-29T01:34:01.521Z,13.00
2023-03-29T01:36:37.239Z,13.00
2023-03-29T01:39:06.232Z,13.00
2023-03-29T01:41:44.058Z,12.90
2023-03-29T01:44:31.717Z,12.90
2023-03-29T01:47:28.761Z,12.90
2023-03-29T01:50:37.322Z,12.80
2023-03-29T01:53:10.811Z,12.80
2023-03-29T01:55:44.640Z,12.80
2023-03-29T01:58:14.138Z,12.80
2023-03-29T02:01:10.549Z,12.70
2023-03-29T02:03:42.572Z,12.70
2023-03-29T02:06:15.918Z,12.70
2023-03-29T02:08:43.746Z,12.70
2023-03-29T02:11:10.826Z,12.70
2023-03-29T02:13:37.912Z,12.80
2023-03-29T02:16:12.991Z,12.80
2023-03-29T02:18:43.327Z,12.80
2023-03-29T02:21:21.341Z,12.70
2023-03-29T02:23:50.101Z,12.70
2023-03-29T02:26:17.818Z,12.70
2023-03-29T02:28:44.760Z,12.70
2023-03-29T02:31:24.323Z,12.60
2023-03-29T02:34:10.584Z,12.60
2023-03-29T02:36:42.963Z,12.50
2023-03-29T02:39:15.671Z,12.50
2023-03-29T02:41:47.186Z,12.50
2023-03-29T02:44:19.174Z,12.50
2023-03-29T02:46:49.040Z,12.40
2023-03-29T02:49:16.421Z,12.40
2023-03-29T02:51:47.523Z,12.40
2023-03-29T02:54:19.547Z,12.40
2023-03-29T02:56:49.369Z,12.40
2023-03-29T03:01:46.382Z,12.40
2023-03-29T03:04:13.899Z,12.40
2023-03-29T03:06:41.082Z,12.40
2023-03-29T03:09:09.763Z,12.40
2023-03-29T03:11:37.790Z,12.40
2023-03-29T03:14:05.948Z,12.40
2023-03-29T03:16:32.988Z,12.40
2023-03-29T03:19:01.100Z,12.40
2023-03-29T03:21:28.342Z,12.40
2023-03-29T03:23:55.835Z,12.40
2023-03-29T03:26:24.927Z,12.40
2023-03-29T03:28:51.863Z,12.40
2023-03-29T03:31:19.705Z,12.40
2023-03-29T03:33:46.739Z,12.40
2023-03-29T03:36:14.088Z,12.40
2023-03-29T03:38:42.150Z,12.30
2023-03-29T03:41:09.195Z,12.30
2023-03-29T03:43:36.506Z,12.20
2023-03-29T03:46:03.514Z,12.20
2023-03-29T03:48:30.594Z,12.20
2023-03-29T03:50:59.147Z,12.20
2023-03-29T03:53:27.479Z,12.20
2023-03-29T03:55:58.982Z,12.20
2023-03-29T03:58:27.216Z,12.20
2023-03-29T04:00:55.016Z,12.20
2023-03-29T04:03:22.745Z,12.20
2023-03-29T04:05:50.111Z,12.20
2023-03-29T04:08:16.990Z,12.20
2023-03-29T04:10:56.315Z,12.20
2023-03-29T04:13:23.725Z,12.20
2023-03-29T04:15:54.442Z,12.20
2023-03-29T04:18:22.466Z,12.20
2023-03-29T04:20:53.042Z,12.10
2023-03-29T04:23:19.983Z,12.00
2023-03-29T04:25:47.736Z,11.90
2023-03-29T04:28:14.618Z,11.90
2023-03-29T04:30:41.489Z,11.90
2023-03-29T04:33:08.556Z,11.90
2023-03-29T04:35:35.583Z,11.90
2023-03-29T04:38:04.478Z,11.90
2023-03-29T04:40:31.851Z,11.90
2023-03-29T04:43:00.146Z,11.90
2023-03-29T04:45:27.411Z,11.90
2023-03-29T04:47:57.203Z,11.80
2023-03-29T04:50:24.097Z,11.80
2023-03-29T04:52:51.507Z,11.80
2023-03-29T04:55:18.429Z,11.70
2023-03-29T04:57:45.289Z,11.70
2023-03-29T05:00:15.747Z,11.60
2023-03-29T05:02:45.709Z,11.60
2023-03-29T05:05:13.453Z,11.50
2023-03-29T05:08:05.998Z,11.50
2023-03-29T05:10:32.917Z,11.40
2023-03-29T05:12:59.841Z,11.40
2023-03-29T05:15:26.860Z,11.30
2023-03-29T05:17:53.881Z,11.30
2023-03-29T05:20:22.067Z,11.20
2023-03-29T05:22:48.993Z,11.20
2023-03-29T05:25:19.658Z,11.20
2023-03-29T05:27:46.925Z,11.10
2023-03-29T05:30:15.483Z,11.10
2023-03-29T05:32:42.999Z,11.10
2023-03-29T05:35:11.420Z,11.00
2023-03-29T05:37:39.897Z,11.10
2023-03-29T05:40:10.486Z,11.00
2023-03-29T05:42:38.737Z,11.00
2023-03-29T05:45:06.546Z,11.10
2023-03-29T05:47:33.468Z,11.10
2023-03-29T05:50:00.475Z,11.10
2023-03-29T05:52:27.528Z,11.10
2023-03-29T05:54:54.444Z,11.20
2023-03-29T05:57:21.628Z,11.20
2023-03-29T05:59:48.548Z,11.20
2023-03-29T06:02:16.097Z,11.20
2023-03-29T06:04:43.258Z,11.30
2023-03-29T06:07:12.622Z,11.30
2023-03-29T06:09:39.940Z,11.30
2023-03-29T06:12:07.990Z,11.30
2023-03-29T06:14:36.634Z,11.40
2023-03-29T06:17:03.881Z,11.40
2023-03-29T06:19:42.578Z,11.40
2023-03-29T06:22:09.460Z,11.40
2023-03-29T06:24:36.570Z,11.40
2023-03-29T06:27:03.558Z,11.50
2023-03-29T06:29:30.402Z,11.50
2023-03-29T06:31:57.324Z,11.60
2023-03-29T06:34:24.325Z,11.60
2023-03-29T06:36:51.280Z,11.70
2023-03-29T06:39:18.270Z,11.80
2023-03-29T06:41:45.171Z,11.90
2023-03-29T06:44:12.591Z,11.90
2023-03-29T06:46:39.538Z,12.00
2023-03-29T06:49:06.557Z,12.00
2023-03-29T06:51:33.457Z,12.10
2023-03-29T06:54:00.344Z,12.10
2023-03-29T06:56:27.249Z,12.20
2023-03-29T06:58:54.104Z,12.30
2023-03-29T07:01:21.874Z,12.30
2023-03-29T07:03:49.853Z,12.40
2023-03-29T07:06:20.975Z,12.50
2023-03-29T07:08:52.075Z,12.60
2023-03-29T07:11:20.454Z,12.60
2023-03-29T07:13:49.263Z,12.70
2023-03-29T07:16:16.386Z,12.80
2023-03-29T07:18:44.374Z,12.90
2023-03-29T07:21:31.272Z,12.90
2023-03-29T07:23:58.392Z,13.00
2023-03-29T07:26:28.632Z,13.10
2023-03-29T07:28:58.856Z,13.10
2023-03-29T07:31:25.860Z,13.20
2023-03-29T07:33:53.612Z,13.30
2023-03-29T07:36:21.857Z,13.30
2023-03-29T07:38:48.801Z,13.40
2023-03-29T07:41:16.266Z,13.40
2023-03-29T07:43:43.213Z,13.50
2023-03-29T07:46:11.450Z,13.60
2023-03-29T07:48:38.382Z,13.70
2023-03-29T07:51:07.217Z,13.90
2023-03-29T07:53:34.297Z,13.90
2023-03-29T07:56:02.775Z,14.00
2023-03-29T07:58:30.590Z,14.10
2023-03-29T08:01:02.952Z,14.20
2023-03-29T08:03:30.055Z,14.30
2023-03-29T08:05:56.935Z,14.30
2023-03-29T08:08:26.670Z,14.40
2023-03-29T08:10:54.795Z,14.50
2023-03-29T08:13:22.083Z,14.60
2023-03-29T08:15:50.346Z,14.60
2023-03-29T08:18:17.641Z,14.70
2023-03-29T08:20:44.521Z,14.80
2023-03-29T08:23:11.497Z,14.80
2023-03-29T08:25:39.377Z,14.90
2023-03-29T08:28:06.498Z,15.00
2023-03-29T08:30:33.464Z,15.10
2023-03-29T08:33:02.278Z,15.20
2023-03-29T08:35:29.190Z,15.30
2023-03-29T08:37:57.581Z,15.40
2023-03-29T08:40:28.534Z,15.50
2023-03-29T08:43:02.070Z,15.60
2023-03-29T08:45:37.702Z,15.70
2023-03-29T08:48:23.394Z,15.80
2023-03-29T08:51:25.547Z,15.90
2023-03-29T08:54:04.456Z,16.00
2023-03-29T08:56:35.429Z,16.10
2023-03-29T08:59:03.474Z,16.20
2023-03-29T09:01:38.711Z,16.30
2023-03-29T09:04:17.183Z,16.40
2023-03-29T09:06:44.574Z,16.40
2023-03-29T09:09:23.396Z,16.60
2023-03-29T09:12:14.055Z,16.60
2023-03-29T09:15:01.939Z,16.70
2023-03-29T09:17:51.955Z,16.80
2023-03-29T09:20:37.492Z,16.90
2023-03-29T09:23:10.338Z,16.90
2023-03-29T09:26:03.617Z,17.00
2023-03-29T09:28:57.393Z,17.10
2023-03-29T09:31:39.288Z,17.20
2023-03-29T09:34:18.892Z,17.30
2023-03-29T09:36:53.576Z,17.40
2023-03-29T09:39:22.316Z,17.40
2023-03-29T09:42:01.822Z,17.50
2023-03-29T09:44:45.798Z,17.60
2023-03-29T09:47:21.221Z,17.70
2023-03-29T09:49:51.839Z,17.80
2023-03-29T09:52:21.352Z,17.80
2023-03-29T09:54:49.372Z,17.90
2023-03-29T09:57:22.170Z,18.00
2023-03-29T09:59:51.605Z,18.00
2023-03-29T10:02:21.180Z,18.10
2023-03-29T10:05:04.249Z,18.20
2023-03-29T10:07:45.676Z,18.20
2023-03-29T10:10:25.447Z,18.20
2023-03-29T10:17:00.227Z,18.30
2023-03-29T10:38:23.126Z,18.60
2023-03-29T10:40:52.792Z,18.70
2023-03-29T10:43:25.693Z,18.70
2023-03-29T10:45:55.918Z,18.80
2023-03-29T10:48:30.425Z,18.80
2023-03-29T10:51:06.147Z,18.80
2023-03-29T10:53:35.973Z,18.90
2023-03-29T10:56:24.908Z,18.90
2023-03-29T10:58:59.056Z,18.90
2023-03-29T11:01:49.061Z,18.90
2023-03-29T11:04:56.730Z,18.90
2023-03-29T11:07:32.925Z,18.90
2023-03-29T11:10:25.818Z,18.90
2023-03-29T11:13:13.480Z,18.90
2023-03-29T11:15:52.270Z,18.90
2023-03-29T11:18:35.490Z,19.00
2023-03-29T11:21:22.638Z,18.90
2023-03-29T11:24:17.163Z,18.90
2023-03-29T11:26:53.630Z,18.90
2023-03-29T11:29:27.189Z,18.90
2023-03-29T11:32:22.385Z,18.90
2023-03-29T11:35:09.276Z,18.90
2023-03-29T11:37:49.930Z,18.80
2023-03-29T11:40:44.982Z,18.80
2023-03-29T11:43:30.629Z,18.60
2023-03-29T11:46:20.749Z,18.60
2023-03-29T11:48:59.626Z,18.50
2023-03-29T11:51:32.282Z,18.50
2023-03-29T11:54:01.889Z,18.50
2023-03-29T11:56:51.501Z,18.50
2023-03-29T12:00:00.173Z,18.70
2023-03-29T12:02:48.685Z,18.80
2023-03-29T12:05:27.834Z,18.90
2023-03-29T12:08:01.560Z,19.00
2023-03-29T12:10:40.666Z,19.00
2023-03-29T12:13:33.205Z,19.10
2023-03-29T12:16:26.575Z,19.10
2023-03-29T12:18:57.142Z,19.10
2023-03-29T12:21:28.049Z,19.20
2023-03-29T12:23:55.428Z,19.20
2023-03-29T12:26:53.420Z,19.30
2023-03-29T12:29:27.486Z,19.30
2023-03-29T12:32:12.798Z,19.30
2023-03-29T12:35:00.820Z,19.30
2023-03-29T12:37:28.696Z,19.30
2023-03-29T12:40:06.339Z,19.30
2023-03-29T12:42:33.318Z,19.40
2023-03-29T12:45:01.652Z,19.40
2023-03-29T12:47:38.216Z,19.50
2023-03-29T12:50:38.914Z,19.50
2023-03-29T12:53:19.179Z,19.60
2023-03-29T12:56:01.840Z,19.60
2023-03-29T12:59:18.137Z,19.60
2023-03-29T13:02:15.456Z,19.50
2023-03-29T13:04:55.650Z,19.50
2023-03-29T13:07:22.765Z,19.40
2023-03-29T13:09:53.033Z,19.40
2023-03-29T13:12:34.514Z,19.30
2023-03-29T13:15:05.471Z,19.20
2023-03-29T13:17:55.558Z,19.10
2023-03-29T13:20:51.031Z,19.10
2023-03-29T13:23:36.475Z,19.00
2023-03-29T13:26:29.907Z,19.10
2023-03-29T13:29:13.253Z,19.20
2023-03-29T13:42:51.437Z,19.70
2023-03-29T13:45:56.151Z,19.70
2023-03-29T13:48:40.639Z,19.70
2023-03-29T14:07:09.322Z,19.60
2023-03-29T14:10:50.957Z,19.60
2023-03-29T15:25:41.230Z,19.30
2023-03-29T15:28:26.539Z,19.30
2023-03-29T15:31:07.657Z,19.30
2023-03-29T15:33:40.543Z,19.30
2023-03-29T15:36:09.870Z,19.30
2023-03-29T15:38:44.085Z,19.30
2023-03-29T15:41:13.661Z,19.20
2023-03-29T15:43:41.463Z,19.20
2023-03-29T15:46:10.936Z,19.20
2023-03-29T15:48:37.895Z,19.20
2023-03-29T15:51:06.932Z,19.10
2023-03-29T15:53:35.223Z,19.10
2023-03-29T15:56:05.541Z,19.10
2023-03-29T15:58:34.519Z,19.00
2023-03-29T16:01:23.571Z,19.00
2023-03-29T16:03:51.047Z,19.00
2023-03-29T16:06:18.483Z,19.00
2023-03-29T16:08:46.156Z,19.00
2023-03-29T16:11:13.926Z,19.00
2023-03-29T16:13:40.907Z,19.00
2023-03-29T16:16:12.440Z,19.00
2023-03-29T16:18:39.342Z,19.00
2023-03-29T16:21:06.674Z,19.00
2023-03-29T16:23:33.536Z,19.00
2023-03-29T16:26:00.511Z,19.00
2023-03-29T16:28:28.302Z,19.00
2023-03-29T16:30:55.191Z,19.00
2023-03-29T16:33:22.096Z,19.00
2023-03-29T16:35:49.107Z,18.90
2023-03-29T16:38:16.008Z,18.90
2023-03-29T16:40:43.830Z,18.90
2023-03-29T16:43:18.713Z,18.90
2023-03-29T16:45:46.008Z,18.90
2023-03-29T16:48:21.830Z,18.80
2023-03-29T16:50:49.547Z,18.80
2023-03-29T16:53:18.357Z,18.80
2023-03-29T16:55:48.326Z,18.80
2023-03-29T16:58:16.280Z,18.80
2023-03-29T17:00:46.365Z,18.80
2023-03-29T17:03:15.478Z,18.70
2023-03-29T17:05:50.312Z,18.70
2023-03-29T17:08:18.024Z,18.70
2023-03-29T17:10:45.582Z,18.70
2023-03-29T17:13:13.159Z,18.60
2023-03-29T17:15:40.285Z,18.60
2023-03-29T17:18:07.416Z,18.60
2023-03-29T17:20:34.354Z,18.50
2023-03-29T17:23:01.341Z,18.50
2023-03-29T17:25:28.207Z,18.50
2023-03-29T17:27:55.108Z,18.40
2023-03-29T17:30:22.050Z,18.40
2023-03-29T17:32:49.325Z,18.40
2023-03-29T17:35:16.327Z,18.40
2023-03-29T17:37:43.326Z,18.30
2023-03-29T17:40:13.816Z,18.30
2023-03-29T17:42:41.776Z,18.30
2023-03-29T17:45:10.597Z,18.30
2023-03-29T17:47:38.781Z,18.20
2023-03-29T17:50:07.362Z,18.20
2023-03-29T17:52:34.565Z,18.20
2023-03-29T17:55:01.701Z,18.20
2023-03-29T17:57:28.696Z,18.20
2023-03-29T17:59:55.578Z,18.20
2023-03-29T18:02:24.484Z,18.10
2023-03-29T18:04:51.840Z,18.10
2023-03-29T18:07:18.947Z,18.10
2023-03-29T18:09:46.244Z,18.00
2023-03-29T18:12:13.122Z,18.10
2023-03-29T18:14:40.005Z,18.00
2023-03-29T18:17:06.904Z,18.00
2023-03-29T18:19:33.974Z,18.00
2023-03-29T18:22:00.997Z,17.90
2023-03-29T18:24:27.921Z,17.90
2023-03-29T18:26:54.862Z,17.90
2023-03-29T18:29:21.894Z,17.90
2023-03-29T18:31:48.824Z,17.80
2023-03-29T18:34:16.049Z,17.80
2023-03-29T18:36:43.066Z,17.80
2023-03-29T18:39:09.925Z,17.80
2023-03-29T18:41:37.445Z,17.80
2023-03-29T18:44:04.541Z,17.80
2023-03-29T18:46:31.980Z,17.80
2023-03-29T18:49:00.498Z,17.80
2023-03-29T18:51:31.137Z,17.80
2023-03-29T18:53:58.063Z,17.80
2023-03-29T18:56:25.094Z,17.70
2023-03-29T18:58:52.385Z,17.70
2023-03-29T19:01:19.351Z,17.70
2023-03-29T19:03:47.077Z,17.70
2023-03-29T19:06:15.245Z,17.70
2023-03-29T19:08:42.315Z,17.70
2023-03-29T19:11:14.230Z,17.70
2023-03-29T19:13:41.992Z,17.70
2023-03-29T19:16:09.151Z,17.70
2023-03-29T19:18:36.753Z,17.70
2023-03-29T19:21:03.883Z,17.70
2023-03-29T19:23:30.774Z,17.60
2023-03-29T19:26:00.323Z,17.60
2023-03-29T19:28:27.984Z,17.60
2023-03-29T19:30:56.353Z,17.60
2023-03-29T19:33:23.436Z,17.60
2023-03-29T19:35:51.819Z,17.50
2023-03-29T19:38:19.409Z,17.60
2023-03-29T19:40:48.144Z,17.50
2023-03-29T19:43:16.771Z,17.50
2023-03-29T19:45:44.592Z,17.50
2023-03-29T19:48:21.155Z,17.50
2023-03-29T19:50:49.054Z,17.50
2023-03-29T19:53:16.028Z,17.50
2023-03-29T19:55:45.297Z,17.50
2023-03-29T19:58:13.212Z,17.50
2023-03-29T20:00:41.929Z,17.50
2023-03-29T20:03:13.983Z,17.50
2023-03-29T20:05:41.195Z,17.40
2023-03-29T20:08:08.562Z,17.40
2023-03-29T20:10:36.418Z,17.40
2023-03-29T20:13:03.644Z,17.40
2023-03-29T20:15:30.561Z,17.40
2023-03-29T20:17:59.689Z,17.40
2023-03-29T20:20:27.338Z,17.40
2023-03-29T20:23:04.583Z,17.40
2023-03-29T20:25:33.051Z,17.40
2023-03-29T20:28:00.306Z,17.40
2023-03-29T20:30:27.284Z,17.40
2023-03-29T20:32:54.202Z,17.40
2023-03-29T20:35:21.214Z,17.40
2023-03-29T20:37:48.147Z,17.40
2023-03-29T20:40:15.827Z,17.30
2023-03-29T20:42:43.005Z,17.30
2023-03-29T20:45:18.356Z,17.30
2023-03-29T20:47:57.590Z,17.30
2023-03-29T20:50:26.406Z,17.20
2023-03-29T20:52:57.135Z,17.30
2023-03-29T20:55:24.650Z,17.20
2023-03-29T20:57:58.271Z,17.30
2023-03-29T21:00:27.280Z,17.30
2023-03-29T21:03:01.188Z,17.30
2023-03-29T21:05:29.248Z,17.30
2023-03-29T21:07:57.011Z,17.30
2023-03-29T21:10:25.590Z,17.30
2023-03-29T21:12:54.367Z,17.30
2023-03-29T21:15:21.271Z,17.30
2023-03-29T21:17:48.201Z,17.30
2023-03-29T21:20:15.644Z,17.30
2023-03-29T21:22:45.334Z,17.30
2023-03-29T21:25:15.653Z,17.30
2023-03-29T21:27:43.005Z,17.30
2023-03-29T21:30:10.958Z,17.30
2023-03-29T21:32:38.176Z,17.30
2023-03-29T21:35:05.984Z,17.30
2023-03-29T21:37:33.243Z,17.30
2023-03-29T21:40:00.405Z,17.30
2023-03-29T21:42:27.243Z,17.30
2023-03-29T21:44:54.081Z,17.30
2023-03-29T21:47:20.993Z,17.30
2023-03-29T21:49:47.832Z,17.30
2023-03-29T21:52:14.675Z,17.30
2023-03-29T21:54:41.585Z,17.30
2023-03-29T21:57:08.685Z,17.30
2023-03-29T21:59:35.771Z,17.30
2023-03-29T22:02:02.701Z,17.30
2023-03-29T22:04:37.030Z,17.30
2023-03-29T22:07:05.951Z,17.30
2023-03-29T22:09:35.204Z,17.30
2023-03-29T22:12:03.007Z,17.30
2023-03-29T22:14:34.774Z,17.30
2023-03-29T22:17:02.867Z,17.30
2023-03-29T22:19:29.735Z,17.30
2023-03-29T22:22:01.570Z,17.30
2023-03-29T22:24:29.342Z,17.30
2023-03-29T22:26:56.413Z,17.30
2023-03-29T22:29:23.314Z,17.30
2023-03-29T22:31:50.380Z,17.30
2023-03-29T22:34:17.402Z,17.30
2023-03-29T22:36:44.321Z,17.30
2023-03-29T22:39:12.070Z,17.30
2023-03-29T22:41:39.190Z,17.30
2023-03-29T22:44:06.394Z,17.30
2023-03-29T22:46:33.336Z,17.30
2023-03-29T22:49:00.291Z,17.30
2023-03-29T22:51:27.464Z,17.30
2023-03-29T22:53:54.425Z,17.30
2023-03-29T22:56:21.957Z,17.30
2023-03-29T22:58:49.175Z,17.30
2023-03-29T23:01:16.119Z,17.30
2023-03-29T23:03:43.088Z,17.30
2023-03-29T23:06:10.118Z,17.30
2023-03-29T23:08:37.243Z,17.30
2023-03-29T23:11:04.926Z,17.30
2023-03-29T23:13:33.590Z,17.30
2023-03-29T23:16:02.232Z,17.30
2023-03-29T23:18:30.372Z,17.30
2023-03-29T23:20:59.022Z,17.30
2023-03-29T23:23:27.104Z,17.30
2023-03-29T23:25:55.675Z,17.30
2023-03-29T23:28:26.102Z,17.20
2023-03-29T23:31:04.732Z,17.20
2023-03-29T23:33:35.444Z,17.20
2023-03-29T23:36:04.535Z,17.20
2023-03-29T23:38:36.108Z,17.20
2023-03-29T23:41:06.133Z,17.20
2023-03-29T23:43:35.131Z,17.20
2023-03-29T23:46:05.260Z,17.20
2023-03-29T23:48:32.662Z,17.20
2023-03-29T23:50:59.955Z,17.20
2023-03-29T23:53:29.129Z,17.20
2023-03-29T23:56:01.449Z,17.20
2023-03-29T23:58:33.419Z,17.20
